Time;durP1;ratioP1;P1;durP2;ratioP2;P2;SDS_P1;SDS_P2;PMS_P1;PMS_P2;Temp;Humidity;BMP_temperature;BMP_pressure;BME280_temperature;BME280_humidity;BME280_pressure;Samples;Min_cycle;Max_cycle;Signal;HPM_P1;HPM_P2
2022/08/19 00:01:52;;;;;;;28.17;17.48;;;;;;;17.23;98.05;101178.41;5072827;28;20032;-73
2022/08/19 00:04:19;;;;;;;27.25;19.05;;;;;;;17.21;97.74;101177.69;5071615;28;20483;-73
2022/08/19 00:06:45;;;;;;;28.42;17.00;;;;;;;17.19;98.19;101180.56;5072265;28;20111;-73
2022/08/19 00:09:16;;;;;;;27.17;18.17;;;;;;;17.17;98.10;101173.56;5071964;28;20024;-73
2022/08/19 00:11:43;;;;;;;27.50;17.17;;;;;;;17.15;97.94;101167.44;5071728;28;20468;-73
2022/08/19 00:14:11;;;;;;;27.05;17.63;;;;;;;17.09;98.00;101172.44;5073473;28;20032;-73
2022/08/19 00:16:38;;;;;;;26.15;15.63;;;;;;;17.08;97.54;101170.72;5073371;28;20086;-73
2022/08/19 00:19:04;;;;;;;25.48;16.15;;;;;;;17.03;97.84;101167.59;5072300;28;20115;-73
2022/08/19 00:21:29;;;;;;;25.58;15.52;;;;;;;16.99;97.67;101168.91;5072363;28;20110;-73
2022/08/19 00:23:57;;;;;;;28.70;18.45;;;;;;;16.96;97.77;101166.47;5072369;28;20016;-73
2022/08/19 00:26:23;;;;;;;27.10;17.88;;;;;;;16.94;97.42;101163.03;5073474;28;20078;-73
2022/08/19 00:28:49;;;;;;;25.02;16.13;;;;;;;16.91;97.79;101163.31;5072333;28;20044;-73
2022/08/19 00:31:16;;;;;;;27.02;17.33;;;;;;;16.87;97.54;101167.34;5073354;28;20056;-73
2022/08/19 00:33:41;;;;;;;27.58;16.23;;;;;;;16.84;97.75;101167.59;5073455;28;20021;-73
2022/08/19 00:36:08;;;;;;;26.90;17.15;;;;;;;16.82;97.88;101172.31;5072040;28;20510;-73
2022/08/19 00:38:35;;;;;;;27.35;18.45;;;;;;;16.80;97.73;101177.06;5074370;28;20574;-73
2022/08/19 00:41:00;;;;;;;27.38;17.92;;;;;;;16.77;98.05;101173.63;5072205;28;20024;-73
2022/08/19 00:43:27;;;;;;;29.45;19.00;;;;;;;16.76;97.72;101171.91;5072090;28;20029;-73
2022/08/19 00:45:53;;;;;;;28.40;19.38;;;;;;;16.75;98.23;101180.19;5073625;28;20044;-73
2022/08/19 00:48:20;;;;;;;27.65;18.30;;;;;;;16.73;98.44;101180.31;5074887;28;20028;-73
2022/08/19 00:50:48;;;;;;;29.27;18.65;;;;;;;16.75;98.49;101181.06;5076027;28;20034;-73
2022/08/19 00:53:17;;;;;;;28.98;18.73;;;;;;;16.75;98.54;101175.63;5076979;28;20028;-73
2022/08/19 00:55:46;;;;;;;30.10;21.25;;;;;;;16.76;98.75;101181.91;5077143;28;20096;-73
2022/08/19 00:58:17;;;;;;;29.50;20.42;;;;;;;16.75;98.39;101175.63;5077115;28;20479;-73
2022/08/19 01:00:42;;;;;;;28.80;20.35;;;;;;;16.76;98.54;101180.06;5075798;28;20017;-75
2022/08/19 01:03:12;;;;;;;28.40;19.35;;;;;;;16.76;98.66;101177.34;5076507;28;20024;-75
2022/08/19 01:05:40;;;;;;;31.05;20.70;;;;;;;16.74;98.78;101165.75;5078914;28;20035;-74
2022/08/19 01:08:06;;;;;;;29.45;19.95;;;;;;;16.75;98.62;101170.19;5077472;28;20024;-74
2022/08/19 01:10:36;;;;;;;27.83;17.90;;;;;;;16.73;98.56;101163.19;5078048;28;20036;-74
2022/08/19 01:13:03;;;;;;;28.75;19.10;;;;;;;16.73;98.47;101183.03;5077607;28;20021;-74
2022/08/19 01:15:34;;;;;;;30.73;19.65;;;;;;;16.73;98.20;101183.03;5078462;28;20028;-74
2022/08/19 01:18:07;;;;;;;29.65;18.67;;;;;;;16.74;98.79;101179.34;5078124;28;20017;-74
2022/08/19 01:20:34;;;;;;;28.08;19.50;;;;;;;16.73;98.96;101180.31;5077465;28;20032;-74
2022/08/19 01:23:00;;;;;;;29.10;18.98;;;;;;;16.70;98.54;101177.91;5078266;28;20025;-74
2022/08/19 01:25:30;;;;;;;29.25;20.27;;;;;;;16.69;98.78;101178.94;5078429;28;20021;-74
2022/08/19 01:27:55;;;;;;;29.15;19.60;;;;;;;16.70;98.92;101174.34;5078710;28;20032;-74
2022/08/19 01:30:25;;;;;;;29.85;19.38;;;;;;;16.67;98.51;101178.19;5078002;28;20028;-74
2022/08/19 01:32:51;;;;;;;29.92;21.25;;;;;;;16.65;98.41;101166.63;5078042;28;20416;-74
2022/08/19 01:35:17;;;;;;;28.67;19.52;;;;;;;16.65;98.46;101179.34;5077236;28;20055;-74
2022/08/19 01:37:56;;;;;;;29.20;19.52;;;;;;;16.63;98.63;101175.91;5077150;28;20036;-74
2022/08/19 01:40:24;;;;;;;27.63;19.02;;;;;;;16.62;98.55;101172.38;5078307;28;20029;-74
2022/08/19 01:42:51;;;;;;;31.80;19.60;;;;;;;16.61;98.69;101173.34;5078069;28;20063;-74
2022/08/19 01:45:18;;;;;;;28.58;19.80;;;;;;;16.57;98.53;101178.22;5078100;28;20064;-74
2022/08/19 01:47:43;;;;;;;29.15;19.45;;;;;;;16.56;98.94;101171.06;5077779;28;20021;-74
2022/08/19 01:50:11;;;;;;;31.08;20.33;;;;;;;16.54;98.55;101173.06;5076473;28;20039;-74
2022/08/19 01:52:38;;;;;;;31.70;18.88;;;;;;;16.52;98.46;101174.22;5077294;28;20404;-74
2022/08/19 01:55:07;;;;;;;29.70;20.23;;;;;;;16.50;99.07;101166.22;5076330;28;20035;-74
2022/08/19 01:57:32;;;;;;;27.80;18.15;;;;;;;16.50;98.61;101170.78;5075816;28;20450;-74
2022/08/19 01:59:59;;;;;;;28.45;18.65;;;;;;;16.49;98.62;101171.81;5075217;28;20035;-74
2022/08/19 02:02:25;;;;;;;31.98;21.67;;;;;;;16.49;98.58;101172.66;5075711;28;20026;-74
2022/08/19 02:04:50;;;;;;;31.13;20.90;;;;;;;16.49;98.51;101180.78;5077703;28;20024;-74
2022/08/19 02:07:19;;;;;;;31.23;22.33;;;;;;;16.49;98.51;101175.34;5077546;28;20305;-74
2022/08/19 02:09:44;;;;;;;33.60;21.93;;;;;;;16.49;98.42;101169.94;5077506;28;20485;-74
2022/08/19 02:12:09;;;;;;;33.72;21.58;;;;;;;16.43;98.46;101176.78;5077226;28;20290;-74
2022/08/19 02:14:36;;;;;;;33.00;23.20;;;;;;;16.45;98.89;101186.66;5075966;28;20032;-74
2022/08/19 02:17:02;;;;;;;32.65;22.92;;;;;;;16.46;98.75;101191.06;5077171;28;20024;-74
2022/08/19 02:19:27;;;;;;;33.92;22.85;;;;;;;16.42;98.46;101199.47;5076536;28;20036;-74
2022/08/19 02:21:52;;;;;;;36.53;25.20;;;;;;;16.40;98.74;101193.34;5077122;28;20150;-74
2022/08/19 02:24:18;;;;;;;33.63;21.83;;;;;;;16.42;98.95;101195.91;5075946;28;20081;-74
2022/08/19 02:26:43;;;;;;;31.50;21.30;;;;;;;16.42;98.64;101194.06;5075653;28;20021;-74
2022/08/19 02:29:08;;;;;;;33.35;23.55;;;;;;;16.41;98.66;101197.78;5075525;28;20028;-74
2022/08/19 02:31:34;;;;;;;34.15;22.83;;;;;;;16.40;98.85;101195.22;5076576;28;20052;-74
2022/08/19 02:34:00;;;;;;;32.97;21.92;;;;;;;16.40;98.99;101203.34;5075513;28;20033;-74
2022/08/19 02:36:26;;;;;;;35.28;23.73;;;;;;;16.38;99.12;101203.50;5076819;28;20084;-74
2022/08/19 02:38:51;;;;;;;34.45;23.42;;;;;;;16.38;98.93;101203.50;5076694;28;20052;-74
2022/08/19 02:41:21;;;;;;;34.17;22.25;;;;;;;16.35;99.24;101206.47;5076777;28;20115;-74
2022/08/19 02:43:46;;;;;;;31.27;21.45;;;;;;;16.39;99.22;101199.78;5076388;28;20056;-74
2022/08/19 02:46:20;;;;;;;32.50;21.80;;;;;;;16.38;99.42;101199.91;5076311;28;20488;-74
2022/08/19 02:48:50;;;;;;;37.58;23.90;;;;;;;16.39;99.68;101201.63;5075206;28;20119;-74
2022/08/19 02:51:21;;;;;;;33.88;22.45;;;;;;;16.38;99.51;101206.22;5076452;28;20107;-74
2022/08/19 02:53:46;;;;;;;33.35;22.90;;;;;;;16.40;100.00;101215.06;5075301;28;20115;-74
2022/08/19 02:56:12;;;;;;;32.97;25.38;;;;;;;16.43;100.00;101214.75;5076200;28;20052;-74
2022/08/19 02:58:37;;;;;;;34.63;23.30;;;;;;;16.41;99.78;101208.63;5076518;28;20024;-74
2022/08/19 03:01:03;;;;;;;35.30;25.77;;;;;;;16.43;100.00;101208.50;5076267;28;20546;-74
2022/08/19 03:03:29;;;;;;;36.25;25.75;;;;;;;16.46;100.00;101204.63;5076413;28;20052;-74
2022/08/19 03:06:06;;;;;;;31.38;22.85;;;;;;;16.46;99.72;101208.22;5076569;28;20028;-74
2022/08/19 03:08:32;;;;;;;40.80;27.20;;;;;;;16.45;100.00;101202.94;5075539;28;20028;-74
2022/08/19 03:10:57;;;;;;;36.58;26.08;;;;;;;16.45;99.98;101205.63;5075302;28;20154;-74
2022/08/19 03:13:23;;;;;;;39.20;27.35;;;;;;;16.42;99.40;101196.75;5076024;28;20103;-74
2022/08/19 03:15:48;;;;;;;35.25;25.10;;;;;;;16.41;99.14;101205.06;5074519;28;20034;-74
2022/08/19 03:18:14;;;;;;;34.63;24.20;;;;;;;16.38;98.79;101211.63;5074676;28;20020;-74
2022/08/19 03:20:45;;;;;;;37.72;25.45;;;;;;;16.38;99.23;101214.34;5076213;28;20035;-74
2022/08/19 03:23:12;;;;;;;33.85;25.35;;;;;;;16.36;99.63;101210.91;5076161;28;20477;-74
2022/08/19 03:25:44;;;;;;;36.72;26.80;;;;;;;16.34;99.43;101203.91;5076455;28;20028;-74
2022/08/19 03:28:14;;;;;;;37.63;27.20;;;;;;;16.35;99.65;101200.19;5075912;28;20510;-74
2022/08/19 03:30:41;;;;;;;36.35;25.05;;;;;;;16.32;99.19;101206.75;5075746;28;20047;-74
2022/08/19 03:33:08;;;;;;;37.45;27.38;;;;;;;16.31;99.36;101202.34;5075691;28;20066;-74
2022/08/19 03:35:36;;;;;;;36.13;25.25;;;;;;;16.28;98.78;101199.03;5074710;28;20024;-74
2022/08/19 03:38:02;;;;;;;34.83;25.60;;;;;;;16.27;98.13;101206.34;5076376;28;20491;-74
2022/08/19 03:40:29;;;;;;;36.42;27.25;;;;;;;16.24;98.61;101204.75;5075928;28;20115;-74
2022/08/19 03:42:54;;;;;;;39.60;29.73;;;;;;;16.28;100.00;101196.34;5076295;28;20036;-74
2022/08/19 03:45:20;;;;;;;39.28;29.58;;;;;;;16.31;100.00;101190.63;5074521;28;20380;-74
2022/08/19 03:47:45;;;;;;;37.40;26.63;;;;;;;16.28;99.49;101190.91;5075683;28;20024;-74
2022/08/19 03:50:10;;;;;;;39.25;28.88;;;;;;;16.25;99.36;101194.75;5074802;28;20044;-74
2022/08/19 03:52:36;;;;;;;38.08;30.08;;;;;;;16.27;100.00;101187.34;5073927;28;20016;-74
2022/08/19 03:55:02;;;;;;;38.08;29.20;;;;;;;16.29;100.00;101193.47;5075963;28;20028;-74
2022/08/19 03:57:28;;;;;;;39.90;29.50;;;;;;;16.29;99.65;101190.75;5074555;28;20017;-74
2022/08/19 03:59:53;;;;;;;45.10;31.23;;;;;;;16.31;100.00;101187.91;5074081;28;20103;-74
2022/08/19 04:02:18;;;;;;;39.45;30.25;;;;;;;16.31;100.00;101188.78;5075607;28;20048;-74
2022/08/19 04:04:44;;;;;;;39.33;30.05;;;;;;;16.29;99.82;101196.19;5075479;28;20025;-74
2022/08/19 04:07:12;;;;;;;37.63;30.05;;;;;;;16.26;99.29;101196.47;5075949;28;20085;-74
2022/08/19 04:09:38;;;;;;;40.80;31.88;;;;;;;16.26;99.47;101193.75;5075677;28;20029;-74
2022/08/19 04:12:05;;;;;;;39.60;30.23;;;;;;;16.24;99.54;101190.34;5075828;28;20043;-74
2022/08/19 04:14:31;;;;;;;41.70;33.50;;;;;;;16.23;99.88;101184.06;5076263;28;20020;-74
2022/08/19 04:16:59;;;;;;;41.33;31.08;;;;;;;16.22;100.00;101190.50;5076271;28;20032;-74
2022/08/19 04:19:25;;;;;;;39.63;29.25;;;;;;;16.20;99.23;101195.19;5075658;28;20025;-74
2022/08/19 04:21:53;;;;;;;39.08;31.80;;;;;;;16.17;99.53;101191.91;5074359;28;20389;-74
2022/08/19 04:24:20;;;;;;;40.80;30.85;;;;;;;16.15;98.99;101194.75;5079387;28;20179;-74
2022/08/19 04:26:47;;;;;;;42.13;31.83;;;;;;;16.13;99.46;101185.03;5079602;28;20503;-74
2022/08/19 04:29:16;;;;;;;42.97;31.35;;;;;;;16.14;99.38;101189.47;5076207;28;20058;-74
2022/08/19 04:31:43;;;;;;;44.35;32.97;;;;;;;16.15;99.79;101189.34;5070737;28;20068;-74
2022/08/19 04:34:10;;;;;;;41.63;32.38;;;;;;;16.13;99.26;101190.47;5058481;28;20021;-74
2022/08/19 04:36:37;;;;;;;40.88;30.65;;;;;;;16.11;99.41;101179.75;5069872;28;20493;-74
2022/08/19 04:39:07;;;;;;;41.28;31.10;;;;;;;16.09;99.71;101181.75;5061484;28;20017;-74
2022/08/19 04:44:19;;;;;;;42.60;31.23;;;;;;;16.09;99.46;101189.88;5059730;28;19927;-74
2022/08/19 04:46:47;;;;;;;46.00;33.58;;;;;;;16.07;99.71;101192.72;5059645;28;20032;-74
2022/08/19 04:49:13;;;;;;;44.22;31.50;;;;;;;16.07;100.00;101191.88;5058526;28;20025;-74
2022/08/19 04:51:42;;;;;;;43.85;31.58;;;;;;;16.06;99.80;101193.75;5058071;28;20088;-74
2022/08/19 04:54:08;;;;;;;42.75;30.42;;;;;;;16.06;99.74;101192.88;5059320;28;20373;-74
2022/08/19 04:56:33;;;;;;;44.42;33.35;;;;;;;16.05;99.55;101199.31;5057824;28;20071;-74
2022/08/19 04:59:03;;;;;;;43.70;32.70;;;;;;;16.04;99.74;101200.31;5059136;28;20392;-74
2022/08/19 05:01:29;;;;;;;42.42;31.33;;;;;;;16.04;99.75;101209.28;5070817;28;20032;-74
2022/08/19 05:03:56;;;;;;;46.20;33.85;;;;;;;16.02;100.00;101205.88;5078951;28;20146;-74
2022/08/19 05:06:22;;;;;;;45.35;34.33;;;;;;;16.03;100.00;101206.72;5077852;28;20047;-74
2022/08/19 05:08:49;;;;;;;44.15;32.60;;;;;;;16.01;100.00;101214.13;5078711;28;20369;-74
2022/08/19 05:11:34;;;;;;;44.28;31.95;;;;;;;16.02;100.00;101205.88;5079430;28;20407;-74
2022/08/19 05:14:00;;;;;;;50.10;35.17;;;;;;;16.04;100.00;101217.41;5079358;28;20021;-74
2022/08/19 05:16:27;;;;;;;47.55;34.53;;;;;;;16.05;100.00;101223.72;5077470;28;20495;-74
2022/08/19 05:24:23;;;;;;;47.17;35.78;;;;;;;16.08;100.00;101235.13;5079750;28;20039;-74
2022/08/19 05:26:50;;;;;;;49.22;37.70;;;;;;;16.12;100.00;101242.97;5077740;28;20025;-74
2022/08/19 05:29:18;;;;;;;51.15;36.17;;;;;;;16.13;100.00;101240.13;5078829;28;20104;-74
2022/08/19 05:31:45;;;;;;;50.10;36.85;;;;;;;16.19;100.00;101244.13;5077406;28;20552;-74
2022/08/19 05:34:11;;;;;;;50.35;36.33;;;;;;;16.19;100.00;101249.56;5076627;28;20044;-74
2022/08/19 05:36:42;;;;;;;57.90;40.45;;;;;;;16.21;100.00;101256.56;5077000;28;20209;-74
2022/08/19 05:39:10;;;;;;;55.28;38.75;;;;;;;16.22;100.00;101255.59;5078840;28;20025;-74
2022/08/19 05:41:40;;;;;;;56.47;39.33;;;;;;;16.24;100.00;101258.16;5076704;28;20079;-74
2022/08/19 05:44:08;;;;;;;54.30;37.67;;;;;;;16.25;100.00;101263.44;5078314;28;20082;-74
2022/08/19 05:46:35;;;;;;;51.28;38.00;;;;;;;16.29;100.00;101249.59;5078326;28;20516;-74
2022/08/19 05:49:00;;;;;;;50.85;37.00;;;;;;;16.30;100.00;101259.44;5077537;28;20031;-74
2022/08/19 05:51:26;;;;;;;50.50;36.83;;;;;;;16.32;100.00;101263.72;5078226;28;20462;-74
2022/08/19 05:53:51;;;;;;;51.70;37.13;;;;;;;16.34;100.00;101261.75;5078395;28;20028;-74
2022/08/19 05:56:17;;;;;;;52.83;40.80;;;;;;;16.36;100.00;101259.72;5077986;28;20032;-74
2022/08/19 05:58:44;;;;;;;51.15;37.97;;;;;;;16.38;100.00;101257.75;5077814;28;20043;-74
2022/08/19 06:01:12;;;;;;;51.38;39.90;;;;;;;16.41;100.00;101251.16;5076241;28;20017;-74
2022/08/19 06:03:39;;;;;;;55.35;39.42;;;;;;;16.41;100.00;101238.47;5077695;28;20059;-74
2022/08/19 06:06:05;;;;;;;50.50;38.63;;;;;;;16.46;100.00;101239.88;5077559;28;20431;-74
2022/08/19 06:08:31;;;;;;;51.50;37.65;;;;;;;16.49;100.00;101235.06;5077672;28;20395;-74
2022/08/19 06:10:56;;;;;;;53.10;38.47;;;;;;;16.52;100.00;101244.78;5077261;28;20099;-74
2022/08/19 06:13:23;;;;;;;52.20;37.60;;;;;;;16.56;100.00;101243.47;5078242;28;20469;-74
2022/08/19 06:15:48;;;;;;;62.45;39.42;;;;;;;16.59;100.00;101244.06;5075980;28;20020;-74
2022/08/19 06:18:15;;;;;;;51.83;37.30;;;;;;;16.65;100.00;101233.59;5075984;28;20057;-74
2022/08/19 06:20:41;;;;;;;57.08;38.47;;;;;;;16.67;100.00;101234.34;5077333;28;20025;-74
2022/08/19 06:23:08;;;;;;;51.60;35.42;;;;;;;16.71;100.00;101230.34;5077884;28;20060;-74
2022/08/19 06:25:34;;;;;;;52.38;36.05;;;;;;;16.72;100.00;101234.75;5076714;28;20039;-74
2022/08/19 06:27:59;;;;;;;55.45;36.70;;;;;;;16.77;100.00;101233.31;5076396;28;20025;-74
2022/08/19 06:30:24;;;;;;;54.78;37.08;;;;;;;16.82;100.00;101234.75;5075729;28;20031;-74
2022/08/19 06:32:49;;;;;;;52.08;36.53;;;;;;;16.87;100.00;101235.19;5077507;28;20052;-74
2022/08/19 06:35:15;;;;;;;50.90;36.92;;;;;;;16.89;100.00;101238.66;5076806;28;20037;-74
2022/08/19 06:37:41;;;;;;;52.10;35.95;;;;;;;16.93;100.00;101226.50;5077609;28;20099;-74
2022/08/19 06:40:08;;;;;;;54.22;38.42;;;;;;;16.98;100.00;101232.34;5077089;28;20052;-74
2022/08/19 06:42:34;;;;;;;53.28;35.90;;;;;;;17.03;100.00;101232.78;5077013;28;20098;-74
2022/08/19 06:45:03;;;;;;;51.50;34.15;;;;;;;17.07;100.00;101234.19;5075564;28;20024;-74
2022/08/19 06:47:28;;;;;;;49.42;34.88;;;;;;;17.12;100.00;101229.16;5075465;28;20070;-74
2022/08/19 06:50:01;;;;;;;49.90;33.95;;;;;;;17.17;100.00;101244.19;5077004;28;20028;-74
2022/08/19 06:52:27;;;;;;;50.65;33.55;;;;;;;17.20;100.00;101228.44;5077061;28;20047;-74
2022/08/19 06:54:52;;;;;;;50.58;35.03;;;;;;;17.25;100.00;101228.03;5075784;28;20472;-74
2022/08/19 06:57:17;;;;;;;46.05;31.83;;;;;;;17.30;100.00;101233.84;5075221;28;20020;-74
2022/08/19 06:59:42;;;;;;;45.20;31.67;;;;;;;17.36;100.00;101233.25;5077046;28;20031;-74
2022/08/19 07:02:08;;;;;;;48.95;31.55;;;;;;;17.41;100.00;101230.97;5076823;28;20054;-74
2022/08/19 07:04:34;;;;;;;51.05;33.70;;;;;;;17.46;100.00;101239.50;5075848;28;20031;-74
2022/08/19 07:07:09;;;;;;;49.42;32.80;;;;;;;17.51;100.00;101228.22;5076732;28;20020;-74
2022/08/19 07:09:40;;;;;;;50.08;34.10;;;;;;;17.57;100.00;101232.19;5076054;28;20020;-74
2022/08/19 07:12:09;;;;;;;44.55;30.52;;;;;;;17.62;100.00;101230.72;5077502;28;20021;-74
2022/08/19 07:14:37;;;;;;;44.42;28.65;;;;;;;17.66;100.00;101239.47;5077019;28;20182;-74
2022/08/19 07:17:06;;;;;;;41.70;29.45;;;;;;;17.71;100.00;101237.13;5076351;28;20020;-74
2022/08/19 07:19:31;;;;;;;44.83;29.85;;;;;;;17.76;100.00;101228.53;5076492;28;20387;-74
2022/08/19 07:21:59;;;;;;;45.50;28.77;;;;;;;17.85;100.00;101240.34;5076624;28;20028;-74
2022/08/19 07:24:27;;;;;;;42.55;27.90;;;;;;;17.91;100.00;101247.97;5076727;28;20053;-74
2022/08/19 07:26:56;;;;;;;45.08;28.90;;;;;;;17.96;100.00;101248.34;5076504;28;20388;-74
2022/08/19 07:29:23;;;;;;;45.25;30.58;;;;;;;18.01;99.43;101254.22;5075212;28;20400;-74
2022/08/19 07:31:52;;;;;;;49.22;30.65;;;;;;;18.07;99.46;101258.16;5074223;28;20102;-74
2022/08/19 07:34:19;;;;;;;47.25;33.15;;;;;;;18.13;100.00;101263.03;5074966;28;20070;-74
2022/08/19 07:36:44;;;;;;;55.05;31.98;;;;;;;18.19;100.00;101256.13;5076024;28;20031;-74
2022/08/19 07:39:30;;;;;;;45.47;32.03;;;;;;;18.25;99.26;101266.38;5076282;28;20029;-74
2022/08/19 07:41:58;;;;;;;45.70;34.95;;;;;;;18.27;98.51;101267.06;5074370;28;20024;-74
2022/08/19 07:44:24;;;;;;;47.17;34.67;;;;;;;18.28;98.27;101271.53;5075128;28;20060;-74
2022/08/19 07:46:52;;;;;;;50.80;36.60;;;;;;;18.30;98.29;101266.75;5073766;28;20032;-74
2022/08/19 07:49:19;;;;;;;49.97;36.25;;;;;;;18.33;99.67;101270.06;5075479;28;20027;-74
2022/08/19 07:51:51;;;;;;;54.38;38.67;;;;;;;18.39;99.34;101273.16;5075035;28;20016;-74
2022/08/19 07:54:17;;;;;;;53.85;39.55;;;;;;;18.38;97.33;101285.06;5074198;28;20066;-74
2022/08/19 07:56:43;;;;;;;55.35;39.20;;;;;;;18.40;98.49;101288.47;5073972;28;20036;-74
2022/08/19 07:59:08;;;;;;;53.72;39.58;;;;;;;18.40;97.50;101292.06;5074890;28;20063;-74
2022/08/19 08:01:34;;;;;;;50.15;37.58;;;;;;;18.44;97.34;101292.63;5074818;28;20464;-74
2022/08/19 08:09:39;;;;;;;62.03;42.42;;;;;;;18.50;97.70;101290.13;5075100;28;20067;-74
2022/08/19 08:12:28;;;;;;;53.15;40.22;;;;;;;18.51;97.07;101291.84;5074620;28;20423;-74
2022/08/19 08:14:56;;;;;;;53.92;39.95;;;;;;;18.52;97.16;101299.00;5075026;28;20016;-74
2022/08/19 08:17:25;;;;;;;50.60;37.90;;;;;;;18.53;96.81;101297.13;5075378;28;20483;-74
2022/08/19 08:19:50;;;;;;;55.42;40.65;;;;;;;18.55;96.32;101292.41;5074928;28;20035;-74
2022/08/19 08:25:13;;;;;;;50.75;36.17;;;;;;;18.60;96.16;101302.81;5074900;28;20069;-74
2022/08/19 08:27:40;;;;;;;47.60;33.65;;;;;;;18.66;96.22;101302.19;5054720;28;20551;-74
2022/08/19 08:30:11;;;;;;;50.25;34.38;;;;;;;18.71;96.50;101310.75;5054642;28;20021;-74
2022/08/19 08:32:38;;;;;;;46.47;34.22;;;;;;;18.78;96.74;101321.88;5070065;28;20078;-74
2022/08/19 08:35:06;;;;;;;48.45;34.83;;;;;;;18.83;95.97;101309.53;5074756;28;20111;-74
2022/08/19 08:37:31;;;;;;;46.75;33.92;;;;;;;18.90;96.43;101309.78;5074863;28;20468;-74
2022/08/19 08:39:56;;;;;;;50.53;32.03;;;;;;;18.96;96.78;101309.19;5073191;28;20035;-74
2022/08/19 08:42:36;;;;;;;42.72;30.65;;;;;;;19.03;95.99;101320.28;5073612;28;20488;-74
2022/08/19 08:45:15;;;;;;;44.95;31.58;;;;;;;19.07;94.53;101326.28;5074027;28;20472;-74
2022/08/19 08:47:43;;;;;;;46.78;32.83;;;;;;;19.11;95.41;101325.81;5075319;28;20020;-74
2022/08/19 08:50:18;;;;;;;47.60;32.28;;;;;;;19.11;94.33;101334.00;5073714;28;20024;-74
2022/08/19 08:52:51;;;;;;;46.08;31.48;;;;;;;19.12;94.07;101332.09;5075055;28;20381;-74
2022/08/19 08:55:20;;;;;;;42.72;30.88;;;;;;;19.10;93.15;101332.25;5075318;28;20036;-74
2022/08/19 08:57:54;;;;;;;44.47;31.83;;;;;;;19.13;93.31;101321.06;5074812;28;20036;-74
2022/08/19 09:00:32;;;;;;;47.20;31.75;;;;;;;19.18;93.76;101323.28;5073466;28;20115;-74
2022/08/19 09:03:01;;;;;;;45.17;30.80;;;;;;;19.20;93.72;101322.13;5075281;28;20481;-74
2022/08/19 09:05:44;;;;;;;43.17;31.17;;;;;;;19.21;93.31;101315.69;5073632;28;20443;-74
2022/08/19 09:08:24;;;;;;;46.25;31.60;;;;;;;19.27;94.35;101324.22;5073842;28;20027;-74
2022/08/19 09:10:53;;;;;;;49.08;33.25;;;;;;;19.31;93.48;101322.91;5077228;28;20025;-74
2022/08/19 09:13:27;;;;;;;46.72;34.47;;;;;;;19.33;93.42;101315.44;5078492;28;20023;-74
2022/08/19 09:15:58;;;;;;;47.58;33.33;;;;;;;19.37;92.86;101322.25;5077197;28;20473;-74
2022/08/19 09:18:24;;;;;;;44.97;33.22;;;;;;;19.40;92.56;101327.41;5077185;28;20433;-74
2022/08/19 09:20:49;;;;;;;46.00;35.05;;;;;;;19.42;91.61;101321.81;5078226;28;20095;-74
2022/08/19 09:23:15;;;;;;;47.13;34.28;;;;;;;19.44;92.01;101322.50;5077954;28;20056;-74
2022/08/19 09:25:40;;;;;;;44.45;32.00;;;;;;;19.41;90.88;101329.09;5076523;28;20025;-74
2022/08/19 09:28:06;;;;;;;43.75;31.08;;;;;;;19.41;90.86;101334.56;5077878;28;20207;-74
2022/08/19 09:30:38;;;;;;;44.67;31.60;;;;;;;19.40;91.46;101335.59;5077704;28;20028;-74
2022/08/19 09:33:04;;;;;;;45.08;32.08;;;;;;;19.43;91.84;101331.66;5077455;28;20055;-74
2022/08/19 09:35:30;;;;;;;43.15;33.60;;;;;;;19.47;91.89;101333.91;5078201;28;20388;-74
2022/08/19 09:37:58;;;;;;;42.90;30.98;;;;;;;19.52;91.38;101333.47;5077849;28;20021;-74
2022/08/19 09:40:23;;;;;;;46.88;34.10;;;;;;;19.55;90.53;101336.72;5077840;28;20028;-74
2022/08/19 09:42:49;;;;;;;48.22;33.97;;;;;;;19.59;90.79;101341.84;5077547;28;20036;-74
2022/08/19 09:45:16;;;;;;;44.08;32.53;;;;;;;19.62;91.43;101336.06;5076649;28;20028;-74
2022/08/19 09:47:42;;;;;;;48.22;32.63;;;;;;;19.61;89.48;101337.09;5076157;28;20476;-74
2022/08/19 09:50:09;;;;;;;44.08;30.48;;;;;;;19.62;90.26;101341.53;5077276;28;20025;-74
2022/08/19 09:52:36;;;;;;;42.38;31.73;;;;;;;19.64;91.76;101339.50;5075748;28;20035;-74
2022/08/19 09:55:03;;;;;;;46.33;32.92;;;;;;;19.66;90.42;101351.09;5076889;28;20549;-74
2022/08/19 09:57:29;;;;;;;44.60;32.60;;;;;;;19.67;90.93;101347.38;5077295;28;20111;-74
2022/08/19 09:59:54;;;;;;;43.85;32.65;;;;;;;19.70;90.13;101344.31;5076518;28;20488;-74
2022/08/19 10:02:19;;;;;;;44.55;32.17;;;;;;;19.71;91.38;101341.41;5076496;28;20396;-74
2022/08/19 10:07:29;;;;;;;45.55;32.30;;;;;;;19.71;90.27;101346.03;5077392;28;20086;-74
2022/08/19 10:09:55;;;;;;;48.97;32.95;;;;;;;19.71;89.47;101352.34;5076711;28;20025;-74
2022/08/19 10:12:20;;;;;;;46.15;33.60;;;;;;;19.72;89.46;101354.06;5076823;28;20028;-74
2022/08/19 10:14:46;;;;;;;45.60;31.85;;;;;;;19.75;90.13;101352.84;5074793;28;20034;-74
2022/08/19 10:17:11;;;;;;;45.42;31.00;;;;;;;19.80;89.49;101350.53;5076229;28;20321;-74
2022/08/19 10:19:37;;;;;;;47.28;31.77;;;;;;;19.84;88.97;101343.75;5075821;28;20115;-74
2022/08/19 10:22:05;;;;;;;40.85;30.92;;;;;;;19.87;89.54;101337.97;5074454;28;20028;-74
2022/08/19 10:24:30;;;;;;;46.75;31.77;;;;;;;19.94;90.12;101331.88;5076403;28;20047;-74
2022/08/19 10:26:56;;;;;;;43.63;31.30;;;;;;;19.98;88.00;101334.09;5076043;28;20427;-74
2022/08/19 10:29:22;;;;;;;44.97;30.83;;;;;;;20.04;89.83;101327.97;5074743;28;20051;-74
2022/08/19 10:31:48;;;;;;;39.70;29.83;;;;;;;20.08;87.58;101336.72;5074034;28;20084;-74
2022/08/19 10:34:13;;;;;;;47.35;31.67;;;;;;;20.16;88.22;101333.16;5075874;28;20092;-74
2022/08/19 10:36:38;;;;;;;41.72;29.17;;;;;;;20.21;86.99;101336.28;5075355;28;20504;-74
2022/08/19 10:39:07;;;;;;;41.67;28.27;;;;;;;20.24;86.48;101344.13;5074576;28;20024;-74
2022/08/19 10:41:36;;;;;;;39.78;28.55;;;;;;;20.31;87.05;101337.00;5074591;28;20032;-74
2022/08/19 10:44:05;;;;;;;41.83;28.10;;;;;;;20.33;86.09;101343.13;5074438;28;20028;-74
2022/08/19 10:46:32;;;;;;;41.45;28.00;;;;;;;20.38;86.43;101338.03;5073941;28;20479;-74
2022/08/19 10:48:59;;;;;;;44.95;28.33;;;;;;;20.45;86.35;101335.50;5075621;28;20024;-74
2022/08/19 10:54:10;;;;;;;40.45;28.35;;;;;;;20.50;85.05;101330.41;5076017;28;20028;-74
2022/08/19 10:56:51;;;;;;;39.58;28.15;;;;;;;20.52;84.22;101328.34;5075384;28;20028;-74
2022/08/19 10:59:27;;;;;;;40.20;29.58;;;;;;;20.53;84.28;101326.50;5075395;28;20031;-74
2022/08/19 11:01:54;;;;;;;43.47;28.38;;;;;;;20.55;84.93;101328.00;5074152;28;20036;-74
2022/08/19 11:04:22;;;;;;;40.92;27.83;;;;;;;20.56;86.01;101323.44;5075977;28;20032;-74
2022/08/19 11:06:48;;;;;;;42.45;28.27;;;;;;;20.57;84.77;101336.91;5074135;28;20029;-74
2022/08/19 11:09:16;;;;;;;42.40;28.85;;;;;;;20.60;86.31;101330.22;5074135;28;20064;-74
2022/08/19 11:11:42;;;;;;;48.30;31.55;;;;;;;20.64;84.41;101334.34;5075206;28;20029;-74
2022/08/19 11:14:14;;;;;;;47.65;32.58;;;;;;;20.64;83.58;101322.59;5075068;28;20029;-74
2022/08/19 11:16:40;;;;;;;43.97;31.88;;;;;;;20.69;83.50;101322.94;5055289;28;20029;-74
2022/08/19 11:19:08;;;;;;;46.08;33.72;;;;;;;20.73;83.17;101318.88;5053763;28;20043;-74
2022/08/19 11:21:37;;;;;;;43.92;32.17;;;;;;;20.81;83.05;101326.25;5054766;28;20021;-74
2022/08/19 11:24:06;;;;;;;44.72;31.55;;;;;;;20.85;82.28;101325.75;5053796;28;20388;-74
2022/08/19 11:26:33;;;;;;;39.97;27.17;;;;;;;20.90;79.75;101326.06;5055178;28;20106;-74
2022/08/19 11:29:00;;;;;;;38.72;26.17;;;;;;;20.94;80.31;101332.91;5053539;28;20036;-74
2022/08/19 11:31:28;;;;;;;40.67;27.92;;;;;;;21.02;79.83;101320.28;5063633;28;20496;-74